Time;durP1;ratioP1;P1;durP2;ratioP2;P2;SDS_P1;SDS_P2;PMS_P1;PMS_P2;Temp;Humidity;BMP_temperature;BMP_pressure;BME280_temperature;BME280_humidity;BME280_pressure;Samples;Min_cycle;Max_cycle;Signal;HPM_P1;HPM_P2
2023/02/17 00:02:06;;;;;;;41.72;25.10;;;;;;;;;;6155067;23;20371;-88
2023/02/17 00:04:34;;;;;;;41.53;25.77;;;;;;;;;;6127669;23;20880;-87
2023/02/17 00:07:02;;;;;;;42.22;24.85;;;;;;;;;;6152523;23;20406;-86
2023/02/17 00:09:31;;;;;;;39.55;24.25;;;;;;;;;;6127924;23;20387;-87
2023/02/17 00:11:59;;;;;;;38.20;23.92;;;;;;;;;;6153041;23;20385;-87
2023/02/17 00:14:26;;;;;;;37.33;23.98;;;;;;;;;;6153001;23;20709;-87
2023/02/17 00:16:59;;;;;;;36.17;22.63;;;;;;;;;;6164584;23;20685;-87
2023/02/17 00:19:32;;;;;;;35.60;22.27;;;;;;;;;;6161487;23;20379;-88
2023/02/17 00:22:01;;;;;;;33.47;21.90;;;;;;;;;;6128244;23;20429;-87
2023/02/17 00:24:30;;;;;;;34.25;21.58;;;;;;;;;;6127138;23;20390;-88
2023/02/17 00:26:59;;;;;;;34.43;21.53;;;;;;;;;;6154496;23;20455;-88
2023/02/17 00:29:27;;;;;;;32.80;21.90;;;;;;;;;;6152114;23;20728;-85
2023/02/17 00:31:55;;;;;;;34.25;21.48;;;;;;;;;;6151979;23;20398;-87
2023/02/17 00:34:23;;;;;;;33.22;22.00;;;;;;;;;;6151532;23;20385;-88
2023/02/17 00:36:52;;;;;;;32.50;20.90;;;;;;;;;;6154284;23;20669;-87
2023/02/17 00:39:26;;;;;;;34.75;22.27;;;;;;;;;;6163974;23;20662;-88
2023/02/17 00:42:00;;;;;;;31.52;21.38;;;;;;;;;;6128089;23;20383;-88
2023/02/17 00:44:29;;;;;;;30.50;20.40;;;;;;;;;;6151811;23;20383;-88
2023/02/17 00:46:57;;;;;;;30.92;20.38;;;;;;;;;;6152022;23;20697;-88
2023/02/17 00:49:26;;;;;;;32.20;20.75;;;;;;;;;;6154466;23;20394;-88
2023/02/17 00:51:54;;;;;;;32.97;20.98;;;;;;;;;;6151951;23;20879;-89
2023/02/17 00:54:21;;;;;;;33.90;21.50;;;;;;;;;;6151505;23;20382;-89
2023/02/17 00:56:54;;;;;;;31.55;21.10;;;;;;;;;;6163832;23;20379;-89
2023/02/17 00:59:24;;;;;;;32.22;21.48;;;;;;;;;;6154563;23;20363;-88
2023/02/17 01:01:52;;;;;;;33.72;21.35;;;;;;;;;;6152117;23;20388;-88
2023/02/17 01:04:20;;;;;;;33.47;21.05;;;;;;;;;;6152077;23;20816;-88
2023/02/17 01:06:53;;;;;;;32.17;21.17;;;;;;;;;;6127029;23;20385;-87
2023/02/17 01:09:25;;;;;;;33.17;20.92;;;;;;;;;;6164041;23;20386;-87
2023/02/17 01:11:58;;;;;;;29.90;19.55;;;;;;;;;;6151163;23;20387;-92
2023/02/17 01:14:33;;;;;;;33.10;20.98;;;;;;;;;;6151614;23;20455;-89
2023/02/17 01:17:00;;;;;;;31.03;20.70;;;;;;;;;;6154026;23;20697;-91
2023/02/17 01:19:33;;;;;;;31.80;20.43;;;;;;;;;;6127403;23;20449;-89
2023/02/17 01:22:06;;;;;;;31.52;20.92;;;;;;;;;;6127233;23;20376;-89
2023/02/17 01:24:39;;;;;;;31.37;20.70;;;;;;;;;;6152075;23;20467;-90
2023/02/17 01:27:07;;;;;;;31.23;20.40;;;;;;;;;;6151737;23;20438;-89
2023/02/17 01:29:36;;;;;;;30.53;20.43;;;;;;;;;;6151854;23;20474;-88
2023/02/17 01:32:04;;;;;;;33.22;21.17;;;;;;;;;;6151625;23;20382;-88
2023/02/17 01:34:31;;;;;;;31.00;20.27;;;;;;;;;;6154381;23;20371;-88
2023/02/17 01:36:59;;;;;;;30.30;19.45;;;;;;;;;;6152135;23;20375;-88
2023/02/17 01:39:35;;;;;;;29.35;19.52;;;;;;;;;;6151814;23;20386;-88
2023/02/17 01:42:03;;;;;;;29.02;18.77;;;;;;;;;;6151083;23;20390;-88
2023/02/17 01:44:31;;;;;;;28.73;19.20;;;;;;;;;;6151125;23;20682;-87
2023/02/17 01:47:01;;;;;;;28.40;19.38;;;;;;;;;;6151765;23;20383;-89
2023/02/17 01:49:35;;;;;;;28.33;19.30;;;;;;;;;;6151595;23;20852;-89
2023/02/17 01:52:11;;;;;;;30.30;20.10;;;;;;;;;;6151284;23;20447;-87
2023/02/17 01:54:42;;;;;;;30.00;20.10;;;;;;;;;;6151561;23;20856;-89
2023/02/17 01:57:10;;;;;;;31.35;20.02;;;;;;;;;;6162901;23;20677;-87
2023/02/17 01:59:44;;;;;;;32.65;21.08;;;;;;;;;;6126739;23;20378;-87
2023/02/17 02:02:13;;;;;;;34.75;21.08;;;;;;;;;;6153225;23;20370;-88
2023/02/17 02:04:47;;;;;;;32.58;21.55;;;;;;;;;;6151118;23;20391;-87
2023/02/17 02:07:19;;;;;;;32.90;20.65;;;;;;;;;;6151156;23;20383;-87
2023/02/17 02:09:50;;;;;;;31.40;20.67;;;;;;;;;;6153775;23;20394;-87
2023/02/17 02:12:19;;;;;;;33.37;20.27;;;;;;;;;;6151463;23;20781;-86
2023/02/17 02:14:52;;;;;;;33.33;20.38;;;;;;;;;;6125952;23;20724;-88
2023/02/17 02:17:34;;;;;;;33.90;20.88;;;;;;;;;;6151796;23;20391;-89
2023/02/17 02:20:11;;;;;;;34.03;20.83;;;;;;;;;;6157792;23;20417;-87
2023/02/17 02:22:56;;;;;;;32.92;20.27;;;;;;;;;;6126192;23;20390;-87
2023/02/17 02:25:40;;;;;;;34.08;21.38;;;;;;;;;;6126149;23;20382;-89
2023/02/17 02:28:20;;;;;;;35.70;21.85;;;;;;;;;;6126317;23;20387;-88
2023/02/17 02:31:11;;;;;;;33.72;21.13;;;;;;;;;;6151794;23;20383;-89
2023/02/17 02:33:41;;;;;;;32.92;21.17;;;;;;;;;;6150707;23;20390;-86
2023/02/17 02:36:13;;;;;;;35.13;21.63;;;;;;;;;;6151164;23;20399;-87
2023/02/17 02:38:43;;;;;;;35.37;21.73;;;;;;;;;;6151376;23;20701;-88
2023/02/17 02:41:17;;;;;;;38.58;22.48;;;;;;;;;;6126789;23;20844;-87
2023/02/17 02:43:51;;;;;;;36.25;22.02;;;;;;;;;;6151774;23;20725;-87
2023/02/17 02:46:19;;;;;;;36.35;21.73;;;;;;;;;;6151051;23;20375;-88
2023/02/17 02:48:50;;;;;;;36.83;21.65;;;;;;;;;;6150697;23;20840;-87
2023/02/17 02:51:28;;;;;;;35.72;20.98;;;;;;;;;;6151104;23;20701;-85
2023/02/17 02:54:11;;;;;;;35.75;20.42;;;;;;;;;;6151007;23;20394;-89
2023/02/17 02:56:48;;;;;;;33.38;20.65;;;;;;;;;;6162804;23;20359;-88
2023/02/17 02:59:23;;;;;;;32.50;20.30;;;;;;;;;;6151462;23;20490;-88
2023/02/17 03:01:53;;;;;;;34.25;20.40;;;;;;;;;;6150882;23;20383;-87
2023/02/17 03:04:30;;;;;;;30.85;19.58;;;;;;;;;;6151694;23;20386;-87
2023/02/17 03:07:00;;;;;;;33.30;20.38;;;;;;;;;;6152853;23;20363;-86
2023/02/17 03:09:28;;;;;;;31.92;19.67;;;;;;;;;;6151307;23;20393;-88
2023/02/17 03:12:01;;;;;;;32.70;18.73;;;;;;;;;;6126355;23;20387;-87
2023/02/17 03:14:36;;;;;;;34.65;19.98;;;;;;;;;;6150632;23;20379;-87
2023/02/17 03:17:09;;;;;;;31.33;19.40;;;;;;;;;;6126805;23;20387;-88
2023/02/17 03:19:46;;;;;;;32.92;18.85;;;;;;;;;;6127019;23;20387;-86
2023/02/17 03:22:21;;;;;;;28.77;18.30;;;;;;;;;;6127079;23;20378;-88
2023/02/17 03:24:54;;;;;;;28.73;17.73;;;;;;;;;;6162791;23;20378;-88
2023/02/17 03:27:27;;;;;;;28.13;17.85;;;;;;;;;;6150394;23;20381;-87
2023/02/17 03:29:55;;;;;;;28.23;17.83;;;;;;;;;;6153233;23;20367;-88
2023/02/17 03:32:23;;;;;;;29.75;17.77;;;;;;;;;;6150598;23;21032;-87
2023/02/17 03:34:58;;;;;;;26.70;17.08;;;;;;;;;;6150768;23;20379;-88
2023/02/17 03:37:26;;;;;;;27.08;17.30;;;;;;;;;;6150300;23;21150;-86
2023/02/17 03:39:53;;;;;;;25.40;16.05;;;;;;;;;;6150982;23;20383;-89
2023/02/17 03:42:26;;;;;;;27.55;17.23;;;;;;;;;;6127270;23;20883;-88
2023/02/17 03:44:54;;;;;;;25.67;16.55;;;;;;;;;;6153023;23;20367;-87
2023/02/17 03:47:27;;;;;;;25.35;16.10;;;;;;;;;;6162804;23;20406;-86
2023/02/17 03:50:01;;;;;;;24.08;15.60;;;;;;;;;;6163270;23;20393;-86
2023/02/17 03:52:29;;;;;;;23.67;14.70;;;;;;;;;;6153034;23;20406;-90
2023/02/17 03:54:57;;;;;;;26.13;15.60;;;;;;;;;;6150782;23;20382;-87
2023/02/17 03:57:30;;;;;;;23.55;14.75;;;;;;;;;;6151254;23;20387;-88
2023/02/17 03:59:58;;;;;;;22.20;14.55;;;;;;;;;;6150704;23;20387;-88
2023/02/17 04:02:26;;;;;;;20.13;13.40;;;;;;;;;;6151121;23;20401;-87
2023/02/17 04:04:54;;;;;;;22.00;14.03;;;;;;;;;;6152980;23;20367;-89
2023/02/17 04:07:23;;;;;;;19.90;13.43;;;;;;;;;;6150693;23;20383;-87
2023/02/17 04:09:51;;;;;;;23.25;14.10;;;;;;;;;;6150573;23;20708;-88
2023/02/17 04:12:23;;;;;;;21.02;13.35;;;;;;;;;;6150565;23;20398;-88
2023/02/17 04:14:56;;;;;;;18.67;12.65;;;;;;;;;;6162443;23;20387;-88
2023/02/17 04:17:24;;;;;;;21.20;13.90;;;;;;;;;;6125867;23;20394;-88
2023/02/17 04:19:52;;;;;;;21.23;12.60;;;;;;;;;;6153142;23;20370;-87
2023/02/17 04:22:20;;;;;;;19.92;13.20;;;;;;;;;;6126031;23;20386;-87
2023/02/17 04:24:49;;;;;;;19.67;12.60;;;;;;;;;;6126905;23;20390;-89
2023/02/17 04:27:17;;;;;;;20.23;12.98;;;;;;;;;;6152970;23;20371;-87
2023/02/17 04:29:50;;;;;;;19.85;12.75;;;;;;;;;;6150467;23;20386;-86
2023/02/17 04:32:18;;;;;;;18.70;12.13;;;;;;;;;;6150736;23;20386;-86
2023/02/17 04:34:51;;;;;;;18.23;12.18;;;;;;;;;;6150520;23;20863;-86
2023/02/17 04:37:19;;;;;;;17.17;11.30;;;;;;;;;;6151550;23;20386;-87
2023/02/17 04:39:53;;;;;;;18.85;11.77;;;;;;;;;;6152524;23;20701;-88
2023/02/17 04:42:26;;;;;;;18.95;11.40;;;;;;;;;;6127830;23;20390;-88
2023/02/17 04:44:58;;;;;;;16.42;10.88;;;;;;;;;;6128782;23;20390;-88
2023/02/17 04:47:27;;;;;;;17.00;10.57;;;;;;;;;;6154875;23;20695;-87
2023/02/17 04:49:54;;;;;;;16.20;10.43;;;;;;;;;;6153891;23;20696;-87
2023/02/17 04:52:23;;;;;;;15.40;10.15;;;;;;;;;;6154377;23;20382;-86
2023/02/17 04:54:57;;;;;;;17.00;10.45;;;;;;;;;;6164208;23;20375;-86
2023/02/17 04:57:24;;;;;;;16.25;10.63;;;;;;;;;;6154451;23;20694;-87
2023/02/17 04:59:53;;;;;;;16.00;10.10;;;;;;;;;;6154706;23;20416;-86
2023/02/17 05:02:27;;;;;;;15.63;10.63;;;;;;;;;;6128780;23;20382;-87
2023/02/17 05:04:59;;;;;;;17.23;10.50;;;;;;;;;;6127182;23;20902;-87
2023/02/17 05:07:27;;;;;;;15.90;10.10;;;;;;;;;;6151776;23;20382;-87
2023/02/17 05:10:01;;;;;;;16.25;10.40;;;;;;;;;;6153067;23;20390;-87
2023/02/17 05:12:34;;;;;;;17.98;11.05;;;;;;;;;;6127782;23;20720;-87
2023/02/17 05:15:08;;;;;;;19.20;10.95;;;;;;;;;;6164412;23;20383;-87
2023/02/17 05:17:41;;;;;;;17.55;10.70;;;;;;;;;;6152601;23;20701;-90
2023/02/17 05:20:14;;;;;;;17.00;10.88;;;;;;;;;;6128140;23;20884;-87
2023/02/17 05:22:46;;;;;;;16.98;10.55;;;;;;;;;;6127630;23;20386;-89
2023/02/17 05:25:20;;;;;;;19.77;11.07;;;;;;;;;;6128017;23;20398;-87
2023/02/17 05:27:53;;;;;;;18.17;10.90;;;;;;;;;;6128071;23;20390;-87
2023/02/17 05:30:21;;;;;;;17.13;10.97;;;;;;;;;;6127263;23;20383;-87
2023/02/17 05:32:55;;;;;;;17.17;11.32;;;;;;;;;;6152176;23;20391;-89
2023/02/17 05:35:23;;;;;;;18.58;11.10;;;;;;;;;;6127754;23;20383;-86
2023/02/17 05:37:56;;;;;;;18.90;11.68;;;;;;;;;;6152012;23;20390;-85
2023/02/17 05:40:30;;;;;;;17.88;10.70;;;;;;;;;;6164277;23;20371;-87
2023/02/17 05:43:02;;;;;;;19.20;11.52;;;;;;;;;;6152322;23;20394;-87
2023/02/17 05:45:30;;;;;;;18.65;11.45;;;;;;;;;;6154288;23;20367;-86
2023/02/17 05:48:03;;;;;;;18.38;11.77;;;;;;;;;;6152012;23;20394;-86
2023/02/17 05:50:31;;;;;;;20.50;11.30;;;;;;;;;;6153894;23;20860;-87
2023/02/17 05:53:03;;;;;;;20.55;12.25;;;;;;;;;;6163557;23;20383;-88
2023/02/17 05:55:33;;;;;;;20.23;11.98;;;;;;;;;;6151436;23;20383;-86
2023/02/17 05:58:01;;;;;;;20.70;11.93;;;;;;;;;;6154046;23;20371;-87
2023/02/17 06:00:34;;;;;;;20.23;11.82;;;;;;;;;;6151828;23;20407;-86
2023/02/17 06:03:02;;;;;;;20.42;11.90;;;;;;;;;;6126062;23;20735;-86
2023/02/17 06:05:29;;;;;;;21.08;12.30;;;;;;;;;;6126608;23;20871;-86
2023/02/17 06:07:57;;;;;;;22.25;12.18;;;;;;;;;;6153772;23;20428;-86
2023/02/17 06:10:25;;;;;;;20.85;11.73;;;;;;;;;;6127524;23;20383;-87
2023/02/17 06:12:54;;;;;;;20.13;11.50;;;;;;;;;;6151206;23;20383;-86
2023/02/17 06:15:22;;;;;;;21.20;11.65;;;;;;;;;;6151407;23;20974;-87
2023/02/17 06:17:50;;;;;;;20.92;11.40;;;;;;;;;;6126562;23;20689;-88
2023/02/17 06:20:20;;;;;;;20.77;11.75;;;;;;;;;;6151462;23;20394;-90
2023/02/17 06:22:48;;;;;;;20.70;11.93;;;;;;;;;;6151226;23;20406;-86
2023/02/17 06:25:16;;;;;;;20.77;11.90;;;;;;;;;;6126914;23;20870;-88
2023/02/17 06:27:49;;;;;;;21.25;11.95;;;;;;;;;;6126923;23;20394;-88
2023/02/17 06:30:23;;;;;;;21.67;12.03;;;;;;;;;;6151153;23;20717;-87
2023/02/17 06:32:57;;;;;;;22.85;12.45;;;;;;;;;;6163301;23;20385;-89
2023/02/17 06:35:25;;;;;;;23.48;12.40;;;;;;;;;;6151279;23;20387;-88
2023/02/17 06:37:52;;;;;;;24.00;12.45;;;;;;;;;;6127512;23;20390;-89
2023/02/17 06:40:20;;;;;;;21.20;12.10;;;;;;;;;;6151007;23;20717;-86
2023/02/17 06:42:53;;;;;;;24.67;13.57;;;;;;;;;;6163518;23;20388;-88
2023/02/17 06:45:27;;;;;;;29.60;13.05;;;;;;;;;;6162914;23;20371;-87
2023/02/17 06:48:00;;;;;;;24.30;13.43;;;;;;;;;;6126679;23;20386;-89
2023/02/17 06:50:33;;;;;;;25.20;13.73;;;;;;;;;;6150861;23;20461;-85
2023/02/17 06:53:01;;;;;;;25.52;13.93;;;;;;;;;;6163115;23;20370;-89
2023/02/17 06:55:36;;;;;;;24.77;13.45;;;;;;;;;;6163357;23;20387;-86
2023/02/17 06:58:06;;;;;;;26.63;13.97;;;;;;;;;;6152875;23;20460;-86
2023/02/17 07:00:35;;;;;;;27.63;14.15;;;;;;;;;;6150583;23;20836;-85
2023/02/17 07:03:08;;;;;;;27.77;13.80;;;;;;;;;;6163180;23;20379;-88
2023/02/17 07:05:36;;;;;;;26.33;14.00;;;;;;;;;;6153517;23;20782;-88
2023/02/17 07:08:04;;;;;;;28.15;13.73;;;;;;;;;;6150975;23;20386;-86
2023/02/17 07:10:37;;;;;;;25.23;13.13;;;;;;;;;;6149240;23;20708;-84
2023/02/17 07:13:05;;;;;;;25.48;13.00;;;;;;;;;;6150867;23;20391;-88
2023/02/17 07:15:32;;;;;;;26.15;13.50;;;;;;;;;;6150871;23;20386;-91
2023/02/17 07:18:07;;;;;;;25.50;13.13;;;;;;;;;;6124384;23;20390;-90
2023/02/17 07:20:39;;;;;;;26.90;13.68;;;;;;;;;;6127282;23;20547;-90
2023/02/17 07:23:07;;;;;;;27.67;13.32;;;;;;;;;;6148783;23;20382;-91
2023/02/17 07:25:40;;;;;;;24.80;12.70;;;;;;;;;;6159504;23;20371;-88
2023/02/17 07:28:08;;;;;;;25.60;12.15;;;;;;;;;;6160687;23;20370;-90
2023/02/17 07:30:42;;;;;;;26.10;13.15;;;;;;;;;;6162647;23;20383;-89
2023/02/17 07:33:11;;;;;;;27.80;13.27;;;;;;;;;;6150179;23;20391;-88
2023/02/17 07:35:40;;;;;;;27.40;13.60;;;;;;;;;;6151427;23;20383;-89
2023/02/17 07:38:08;;;;;;;26.85;13.23;;;;;;;;;;6150924;23;20378;-91
2023/02/17 07:40:36;;;;;;;27.48;13.05;;;;;;;;;;6150247;23;20382;-89
2023/02/17 07:43:04;;;;;;;27.10;13.35;;;;;;;;;;6126191;23;20371;-90
2023/02/17 07:45:38;;;;;;;29.33;14.85;;;;;;;;;;6124451;23;20379;-89
2023/02/17 07:48:12;;;;;;;32.15;14.80;;;;;;;;;;6150327;23;20401;-89
2023/02/17 07:50:40;;;;;;;30.42;14.32;;;;;;;;;;6126383;23;20398;-88
2023/02/17 07:53:12;;;;;;;30.30;14.48;;;;;;;;;;6146200;23;20397;-86
2023/02/17 07:55:45;;;;;;;30.27;14.00;;;;;;;;;;6117340;23;20394;-88
2023/02/17 07:58:18;;;;;;;28.15;13.95;;;;;;;;;;6105738;23;20392;-86
2023/02/17 08:00:51;;;;;;;34.08;15.60;;;;;;;;;;6133453;23;20398;-83
2023/02/17 08:03:20;;;;;;;32.30;14.98;;;;;;;;;;6131538;23;20382;-85
2023/02/17 08:05:50;;;;;;;34.28;15.85;;;;;;;;;;6129052;23;20387;-86
2023/02/17 08:13:53;;;;;;;33.15;15.75;;;;;;;;;;6103826;23;20386;-85
2023/02/17 08:16:21;;;;;;;34.92;16.25;;;;;;;;;;6124719;23;20387;-86
2023/02/17 08:18:51;;;;;;;36.55;16.30;;;;;;;;;;6128921;23;21074;-86
2023/02/17 08:21:24;;;;;;;34.55;15.88;;;;;;;;;;6142819;23;20378;-85
2023/02/17 08:23:57;;;;;;;31.77;15.35;;;;;;;;;;6131414;23;20387;-87
2023/02/17 08:26:30;;;;;;;33.97;15.75;;;;;;;;;;6104794;23;20386;-85
2023/02/17 08:29:03;;;;;;;30.70;15.23;;;;;;;;;;6143489;23;20390;-85
2023/02/17 08:31:36;;;;;;;33.75;15.57;;;;;;;;;;6145435;23;20386;-84
2023/02/17 08:34:06;;;;;;;31.40;15.23;;;;;;;;;;6140811;23;20386;-86
2023/02/17 08:36:36;;;;;;;32.55;15.18;;;;;;;;;;6132245;23;21305;-85
2023/02/17 08:39:11;;;;;;;29.08;14.40;;;;;;;;;;6106680;23;20732;-85
2023/02/17 08:41:39;;;;;;;31.20;15.27;;;;;;;;;;6130043;23;20451;-85
2023/02/17 08:44:08;;;;;;;32.70;14.65;;;;;;;;;;6128767;23;20402;-85
2023/02/17 08:46:37;;;;;;;30.83;13.77;;;;;;;;;;6132512;23;20367;-87
2023/02/17 08:49:06;;;;;;;30.48;14.30;;;;;;;;;;6129223;23;20367;-86
2023/02/17 08:51:34;;;;;;;30.13;13.60;;;;;;;;;;6103974;23;21384;-90
2023/02/17 08:54:04;;;;;;;32.53;13.93;;;;;;;;;;6131491;23;20383;-87
2023/02/17 08:56:32;;;;;;;29.27;13.38;;;;;;;;;;6133236;23;21240;-85
2023/02/17 08:59:00;;;;;;;29.20;13.48;;;;;;;;;;6131202;23;20386;-85
2023/02/17 09:01:28;;;;;;;27.93;13.50;;;;;;;;;;6131666;23;20414;-86
2023/02/17 09:03:56;;;;;;;27.23;12.93;;;;;;;;;;6098602;23;20402;-86
2023/02/17 09:06:35;;;;;;;28.10;12.52;;;;;;;;;;6131900;23;20383;-85
2023/02/17 09:09:09;;;;;;;25.08;11.80;;;;;;;;;;6146639;23;20379;-86
2023/02/17 09:11:37;;;;;;;24.92;11.65;;;;;;;;;;6107209;23;20387;-85
2023/02/17 09:14:06;;;;;;;25.35;11.10;;;;;;;;;;6133912;23;20378;-86
2023/02/17 09:16:34;;;;;;;21.83;10.52;;;;;;;;;;6131652;23;20787;-86
2023/02/17 09:19:07;;;;;;;23.15;10.90;;;;;;;;;;6134632;23;20387;-86
2023/02/17 09:21:41;;;;;;;23.52;11.30;;;;;;;;;;6104424;23;20391;-80
2023/02/17 09:24:09;;;;;;;21.73;10.18;;;;;;;;;;6102675;23;20393;-86
2023/02/17 09:26:42;;;;;;;22.55;10.90;;;;;;;;;;6107388;23;21174;-84
2023/02/17 09:29:10;;;;;;;22.17;10.10;;;;;;;;;;6106448;23;20414;-86
2023/02/17 09:31:38;;;;;;;20.65;9.55;;;;;;;;;;6130495;23;20402;-81
2023/02/17 09:34:06;;;;;;;19.75;8.85;;;;;;;;;;6101790;23;20848;-86
2023/02/17 09:36:37;;;;;;;22.00;9.77;;;;;;;;;;6104997;23;21124;-85
2023/02/17 09:39:06;;;;;;;21.67;9.50;;;;;;;;;;6102134;23;20383;-83
2023/02/17 09:41:36;;;;;;;19.90;9.00;;;;;;;;;;6104278;23;20752;-87
2023/02/17 09:44:05;;;;;;;19.02;8.73;;;;;;;;;;6125926;23;20980;-82
2023/02/17 09:46:42;;;;;;;19.52;8.90;;;;;;;;;;6102834;23;20720;-83
2023/02/17 09:49:12;;;;;;;19.85;8.85;;;;;;;;;;6107534;23;20394;-88
2023/02/17 09:51:47;;;;;;;19.33;8.30;;;;;;;;;;6127671;23;20437;-82
2023/02/17 09:54:18;;;;;;;19.40;8.65;;;;;;;;;;6108579;23;20711;-87
2023/02/17 09:56:51;;;;;;;20.58;8.98;;;;;;;;;;6146067;23;20387;-85
2023/02/17 09:59:21;;;;;;;21.08;9.38;;;;;;;;;;6103576;23;20414;-84
2023/02/17 10:01:51;;;;;;;18.67;8.80;;;;;;;;;;6105536;23;20390;-81
2023/02/17 10:04:27;;;;;;;21.13;9.25;;;;;;;;;;6143333;23;20606;-82
2023/02/17 10:07:00;;;;;;;19.88;9.30;;;;;;;;;;6104125;23;20390;-82
2023/02/17 10:09:38;;;;;;;18.95;8.82;;;;;;;;;;6100704;23;20713;-86
2023/02/17 10:12:13;;;;;;;20.25;9.32;;;;;;;;;;6124708;23;20402;-82
2023/02/17 10:14:48;;;;;;;23.37;9.83;;;;;;;;;;6102579;23;20432;-85
2023/02/17 10:17:18;;;;;;;19.70;8.67;;;;;;;;;;6098167;23;20398;-85
2023/02/17 10:19:53;;;;;;;18.23;8.05;;;;;;;;;;6132154;23;20390;-84
2023/02/17 10:22:26;;;;;;;18.55;8.48;;;;;;;;;;6138481;23;20930;-85
2023/02/17 10:24:55;;;;;;;18.17;8.40;;;;;;;;;;6090349;23;20791;-86
2023/02/17 10:27:27;;;;;;;17.40;7.82;;;;;;;;;;6096612;23;20385;-83
2023/02/17 10:30:00;;;;;;;17.88;7.57;;;;;;;;;;6096333;23;20386;-80
2023/02/17 10:32:30;;;;;;;19.90;8.27;;;;;;;;;;6095064;23;20390;-85
2023/02/17 10:35:11;;;;;;;16.65;7.65;;;;;;;;;;6098175;23;20383;-86
2023/02/17 10:37:45;;;;;;;15.30;7.30;;;;;;;;;;6145162;23;20387;-82
2023/02/17 10:40:17;;;;;;;18.23;8.20;;;;;;;;;;6111371;23;20390;-84
2023/02/17 10:42:45;;;;;;;15.35;6.68;;;;;;;;;;6139316;23;21035;-85
2023/02/17 10:45:19;;;;;;;15.20;7.32;;;;;;;;;;6108153;23;20383;-82
2023/02/17 10:47:55;;;;;;;16.67;7.78;;;;;;;;;;6145415;23;20740;-83
2023/02/17 10:50:24;;;;;;;15.85;7.25;;;;;;;;;;6108007;23;20383;-83
2023/02/17 10:52:55;;;;;;;16.25;7.45;;;;;;;;;;6127619;23;20391;-83
2023/02/17 10:55:30;;;;;;;16.20;7.40;;;;;;;;;;6129602;23;20410;-86
2023/02/17 10:58:07;;;;;;;13.75;6.40;;;;;;;;;;6107184;23;20386;-84
2023/02/17 11:00:41;;;;;;;15.18;7.05;;;;;;;;;;6107171;23;21225;-85
2023/02/17 11:03:21;;;;;;;16.20;7.20;;;;;;;;;;6144384;23;20394;-86
2023/02/17 11:05:55;;;;;;;15.63;7.15;;;;;;;;;;6138765;23;20375;-88
2023/02/17 11:08:31;;;;;;;14.18;6.68;;;;;;;;;;6106408;23;20803;-84
2023/02/17 11:11:07;;;;;;;14.07;6.53;;;;;;;;;;6143145;23;20382;-85
2023/02/17 11:13:37;;;;;;;15.25;6.63;;;;;;;;;;6133168;23;20370;-88
2023/02/17 11:16:05;;;;;;;13.60;6.15;;;;;;;;;;6134368;23;20717;-87
2023/02/17 11:18:41;;;;;;;13.68;6.07;;;;;;;;;;6108106;23;20391;-88
2023/02/17 11:21:11;;;;;;;11.38;5.57;;;;;;;;;;6131302;23;20899;-90
2023/02/17 11:23:48;;;;;;;14.35;6.78;;;;;;;;;;6147958;23;20390;-88
2023/02/17 11:26:24;;;;;;;13.90;6.82;;;;;;;;;;6141475;23;20390;-84
2023/02/17 11:28:52;;;;;;;16.88;7.07;;;;;;;;;;6110395;23;20390;-89
2023/02/17 11:31:26;;;;;;;16.17;7.20;;;;;;;;;;6143975;23;20394;-82
2023/02/17 11:34:10;;;;;;;15.95;7.53;;;;;;;;;;6113752;23;20379;-86
2023/02/17 11:36:38;;;;;;;17.38;7.70;;;;;;;;;;6106555;23;20382;-86
2023/02/17 11:39:16;;;;;;;15.93;7.80;;;;;;;;;;6116964;23;20395;-86
2023/02/17 11:41:51;;;;;;;18.48;8.27;;;;;;;;;;6113971;23;20379;-83
2023/02/17 11:44:23;;;;;;;18.40;8.00;;;;;;;;;;6131815;23;20451;-83
2023/02/17 11:47:01;;;;;;;19.77;8.60;;;;;;;;;;6132474;23;20394;-82
2023/02/17 11:49:47;;;;;;;18.48;8.18;;;;;;;;;;6145211;23;20382;-85
2023/02/17 11:52:26;;;;;;;20.13;8.33;;;;;;;;;;6103137;23;20387;-83
2023/02/17 11:55:00;;;;;;;18.25;8.45;;;;;;;;;;6107645;23;20393;-84
2023/02/17 11:57:35;;;;;;;19.63;9.07;;;;;;;;;;6136988;23;20399;-83
2023/02/17 12:00:10;;;;;;;19.95;9.50;;;;;;;;;;6115762;23;20378;-86
2023/02/17 12:02:49;;;;;;;19.48;9.18;;;;;;;;;;6143824;23;20847;-86
2023/02/17 12:05:25;;;;;;;22.58;9.55;;;;;;;;;;6106055;23;20401;-83
2023/02/17 12:07:58;;;;;;;22.65;10.63;;;;;;;;;;6143544;23;20363;-88
2023/02/17 12:10:36;;;;;;;19.00;8.60;;;;;;;;;;6142474;23;20856;-86
2023/02/17 12:13:13;;;;;;;17.25;8.13;;;;;;;;;;6105860;23;20394;-86
2023/02/17 12:15:55;;;;;;;17.08;8.02;;;;;;;;;;6129347;23;20405;-82
2023/02/17 12:18:34;;;;;;;16.67;7.70;;;;;;;;;;6143950;23;20383;-85
2023/02/17 12:21:06;;;;;;;18.48;7.97;;;;;;;;;;6111099;23;20378;-88
2023/02/17 12:23:43;;;;;;;17.05;7.82;;;;;;;;;;6107894;23;20382;-85
2023/02/17 12:26:14;;;;;;;15.48;6.47;;;;;;;;;;6107071;23;20391;-85
2023/02/17 12:28:53;;;;;;;16.73;8.18;;;;;;;;;;6103634;23;20390;-85
2023/02/17 12:31:35;;;;;;;17.10;7.68;;;;;;;;;;6131654;23;20977;-86
2023/02/17 12:34:14;;;;;;;14.75;6.82;;;;;;;;;;6142465;23;20860;-89
2023/02/17 12:36:48;;;;;;;15.65;7.75;;;;;;;;;;6132068;23;20994;-84
2023/02/17 12:39:18;;;;;;;15.73;7.05;;;;;;;;;;6103400;23;20393;-85
2023/02/17 12:41:49;;;;;;;15.23;8.38;;;;;;;;;;6132479;23;20394;-90
2023/02/17 12:44:24;;;;;;;13.23;6.00;;;;;;;;;;6113522;23;20402;-85
2023/02/17 12:46:54;;;;;;;14.45;6.93;;;;;;;;;;6103945;23;20379;-85
2023/02/17 12:49:29;;;;;;;14.98;7.13;;;;;;;;;;6144693;23;21119;-90
2023/02/17 12:51:58;;;;;;;14.98;6.38;;;;;;;;;;6095651;23;20883;-85
2023/02/17 12:54:30;;;;;;;13.43;6.15;;;;;;;;;;6101453;23;20378;-85
2023/02/17 12:57:07;;;;;;;12.73;5.88;;;;;;;;;;6110890;23;20397;-83
2023/02/17 12:59:38;;;;;;;11.95;5.65;;;;;;;;;;6143973;23;20385;-84
2023/02/17 13:02:12;;;;;;;12.43;5.75;;;;;;;;;;6133262;23;20391;-85
2023/02/17 13:04:46;;;;;;;13.10;5.80;;;;;;;;;;6132701;23;20402;-85
2023/02/17 13:07:31;;;;;;;12.73;5.57;;;;;;;;;;6113532;23;20378;-90
2023/02/17 13:10:00;;;;;;;12.15;5.18;;;;;;;;;;6147233;23;20367;-86
2023/02/17 13:12:39;;;;;;;12.00;5.40;;;;;;;;;;6129607;23;20391;-84
2023/02/17 13:15:26;;;;;;;10.60;4.80;;;;;;;;;;6148060;23;20378;-84
2023/02/17 13:17:54;;;;;;;12.05;5.40;;;;;;;;;;6140937;23;20371;-85
2023/02/17 13:20:37;;;;;;;11.13;5.18;;;;;;;;;;6131607;23;20386;-86
2023/02/17 13:23:06;;;;;;;10.15;4.57;;;;;;;;;;6103657;23;20405;-86
2023/02/17 13:25:39;;;;;;;10.00;4.55;;;;;;;;;;6139799;23;20375;-87
2023/02/17 13:28:19;;;;;;;10.30;4.50;;;;;;;;;;6128977;23;21051;-85
2023/02/17 13:30:51;;;;;;;10.23;4.53;;;;;;;;;;6105328;23;20393;-88
2023/02/17 13:33:29;;;;;;;12.02;4.55;;;;;;;;;;6138711;23;20377;-83
2023/02/17 13:35:57;;;;;;;8.75;4.15;;;;;;;;;;6103309;23;20390;-86
2023/02/17 13:38:28;;;;;;;9.60;4.32;;;;;;;;;;6102682;23;20383;-88
2023/02/17 13:40:58;;;;;;;9.63;4.45;;;;;;;;;;6131832;23;20681;-83
2023/02/17 13:43:28;;;;;;;10.65;4.80;;;;;;;;;;6138562;23;20375;-88
2023/02/17 13:46:03;;;;;;;9.48;4.60;;;;;;;;;;6140196;23;20371;-84
2023/02/17 13:48:36;;;;;;;12.00;4.68;;;;;;;;;;6141815;23;20382;-86
2023/02/17 13:51:24;;;;;;;9.88;4.88;;;;;;;;;;6137403;23;21111;-85
2023/02/17 13:53:52;;;;;;;11.68;5.55;;;;;;;;;;6101652;23;21113;-89
2023/02/17 13:56:26;;;;;;;13.02;5.65;;;;;;;;;;6108746;23;21177;-85
2023/02/17 13:59:06;;;;;;;11.43;6.18;;;;;;;;;;6107500;23;20398;-84
2023/02/17 14:01:37;;;;;;;11.83;6.47;;;;;;;;;;6134967;23;20383;-90
2023/02/17 14:04:21;;;;;;;14.00;6.70;;;;;;;;;;6142363;23;20394;-89
2023/02/17 14:06:55;;;;;;;14.93;6.73;;;;;;;;;;6128291;23;20775;-87
2023/02/17 14:09:29;;;;;;;13.07;7.03;;;;;;;;;;6145033;23;20378;-88
2023/02/17 14:12:03;;;;;;;13.23;7.40;;;;;;;;;;6141467;23;20383;-85
2023/02/17 14:14:36;;;;;;;15.07;7.47;;;;;;;;;;6137272;23;20840;-85
2023/02/17 14:17:15;;;;;;;13.37;7.40;;;;;;;;;;6103485;23;20888;-85
2023/02/17 14:19:44;;;;;;;14.80;8.35;;;;;;;;;;6135021;23;20852;-82
2023/02/17 14:22:22;;;;;;;15.77;8.45;;;;;;;;;;6104443;23;20399;-84
2023/02/17 14:24:59;;;;;;;14.52;8.32;;;;;;;;;;6142498;23;20379;-91
2023/02/17 14:27:40;;;;;;;14.10;6.93;;;;;;;;;;6147276;23;20390;-88
2023/02/17 14:30:14;;;;;;;14.30;6.78;;;;;;;;;;6145124;23;20851;-87
2023/02/17 14:32:48;;;;;;;12.70;6.32;;;;;;;;;;6145470;23;20383;-89
2023/02/17 14:35:22;;;;;;;13.85;5.70;;;;;;;;;;6104284;23;20594;-86
2023/02/17 14:37:50;;;;;;;13.38;5.28;;;;;;;;;;6136613;23;20915;-84
2023/02/17 14:40:19;;;;;;;10.05;5.07;;;;;;;;;;6134277;23;20382;-86
2023/02/17 14:42:52;;;;;;;13.32;4.40;;;;;;;;;;6140769;23;20382;-90
2023/02/17 14:45:19;;;;;;;9.50;4.30;;;;;;;;;;6132830;23;20371;-86
2023/02/17 14:47:55;;;;;;;10.73;3.67;;;;;;;;;;6104304;23;20398;-91
2023/02/17 14:50:28;;;;;;;10.77;3.40;;;;;;;;;;6104494;23;20386;-86
2023/02/17 14:53:01;;;;;;;11.00;3.10;;;;;;;;;;6102146;23;20733;-87
2023/02/17 14:55:32;;;;;;;8.77;2.97;;;;;;;;;;6104625;23;21206;-82